sensor_id;sensor_type;location;lat;lon;timestamp;temperature;humidity
939;DHT22;456;53.584;9.968;2023-02-07T00:00:08;16.90;13.50
939;DHT22;456;53.584;9.968;2023-02-07T00:02:33;16.90;13.50
939;DHT22;456;53.584;9.968;2023-02-07T00:04:59;16.90;13.70
939;DHT22;456;53.584;9.968;2023-02-07T00:07:25;16.90;13.30
939;DHT22;456;53.584;9.968;2023-02-07T00:09:51;16.90;13.50
939;DHT22;456;53.584;9.968;2023-02-07T00:12:17;16.90;13.40
939;DHT22;456;53.584;9.968;2023-02-07T00:14:42;16.90;13.40
939;DHT22;456;53.584;9.968;2023-02-07T00:17:08;16.90;13.30
939;DHT22;456;53.584;9.968;2023-02-07T00:19:34;16.90;13.30
939;DHT22;456;53.584;9.968;2023-02-07T00:21:59;16.80;13.20
939;DHT22;456;53.584;9.968;2023-02-07T00:24:25;16.80;13.10
939;DHT22;456;53.584;9.968;2023-02-07T00:26:51;16.90;13.10
939;DHT22;456;53.584;9.968;2023-02-07T00:29:18;16.80;13.10
939;DHT22;456;53.584;9.968;2023-02-07T00:31:44;16.80;13.10
939;DHT22;456;53.584;9.968;2023-02-07T00:34:12;16.80;13.00
939;DHT22;456;53.584;9.968;2023-02-07T00:36:38;16.80;13.00
939;DHT22;456;53.584;9.968;2023-02-07T00:39:15;16.80;12.90
939;DHT22;456;53.584;9.968;2023-02-07T00:41:41;16.80;12.90
939;DHT22;456;53.584;9.968;2023-02-07T00:44:08;16.80;12.90
939;DHT22;456;53.584;9.968;2023-02-07T00:46:34;16.80;13.00
939;DHT22;456;53.584;9.968;2023-02-07T00:49:00;16.80;12.90
939;DHT22;456;53.584;9.968;2023-02-07T00:51:26;16.80;12.90
939;DHT22;456;53.584;9.968;2023-02-07T00:53:53;16.80;12.80
939;DHT22;456;53.584;9.968;2023-02-07T00:56:20;16.80;12.90
939;DHT22;456;53.584;9.968;2023-02-07T00:58:46;16.80;12.80
939;DHT22;456;53.584;9.968;2023-02-07T01:01:11;16.80;12.80
939;DHT22;456;53.584;9.968;2023-02-07T01:03:37;16.80;12.80
939;DHT22;456;53.584;9.968;2023-02-07T01:06:04;16.80;12.80
939;DHT22;456;53.584;9.968;2023-02-07T01:08:29;16.80;13.00
939;DHT22;456;53.584;9.968;2023-02-07T01:10:55;16.80;12.90
939;DHT22;456;53.584;9.968;2023-02-07T01:13:21;16.80;12.90
939;DHT22;456;53.584;9.968;2023-02-07T01:15:47;16.80;12.90
939;DHT22;456;53.584;9.968;2023-02-07T01:18:13;16.80;13.00
939;DHT22;456;53.584;9.968;2023-02-07T01:20:40;16.80;12.80
939;DHT22;456;53.584;9.968;2023-02-07T01:23:05;16.80;12.60
939;DHT22;456;53.584;9.968;2023-02-07T01:25:31;16.80;12.80
939;DHT22;456;53.584;9.968;2023-02-07T01:27:57;16.80;12.70
939;DHT22;456;53.584;9.968;2023-02-07T01:30:22;16.80;12.70
939;DHT22;456;53.584;9.968;2023-02-07T01:32:48;16.80;12.60
939;DHT22;456;53.584;9.968;2023-02-07T01:35:14;16.80;12.50
939;DHT22;456;53.584;9.968;2023-02-07T01:37:40;16.80;12.50
939;DHT22;456;53.584;9.968;2023-02-07T01:40:06;16.80;12.40
939;DHT22;456;53.584;9.968;2023-02-07T01:42:32;16.80;13.00
939;DHT22;456;53.584;9.968;2023-02-07T01:47:29;16.80;12.40
939;DHT22;456;53.584;9.968;2023-02-07T01:49:56;16.80;12.40
939;DHT22;456;53.584;9.968;2023-02-07T01:52:28;16.80;12.50
939;DHT22;456;53.584;9.968;2023-02-07T01:54:58;16.80;12.40
939;DHT22;456;53.584;9.968;2023-02-07T01:57:25;16.80;12.40
939;DHT22;456;53.584;9.968;2023-02-07T01:59:53;16.80;12.20
939;DHT22;456;53.584;9.968;2023-02-07T02:02:21;16.80;12.30
939;DHT22;456;53.584;9.968;2023-02-07T02:04:50;16.80;12.30
939;DHT22;456;53.584;9.968;2023-02-07T02:07:18;16.70;12.80
939;DHT22;456;53.584;9.968;2023-02-07T02:09:44;16.80;12.40
939;DHT22;456;53.584;9.968;2023-02-07T02:26:18;16.80;12.60
939;DHT22;456;53.584;9.968;2023-02-07T02:31:57;16.80;12.50
939;DHT22;456;53.584;9.968;2023-02-07T02:34:42;16.80;12.40
939;DHT22;456;53.584;9.968;2023-02-07T02:37:16;16.80;12.30
939;DHT22;456;53.584;9.968;2023-02-07T02:40:06;16.80;12.10
939;DHT22;456;53.584;9.968;2023-02-07T02:45:30;16.80;12.10
939;DHT22;456;53.584;9.968;2023-02-07T02:47:57;16.80;12.10
939;DHT22;456;53.584;9.968;2023-02-07T02:50:27;16.80;12.00
939;DHT22;456;53.584;9.968;2023-02-07T02:52:55;16.80;12.00
939;DHT22;456;53.584;9.968;2023-02-07T02:58:08;16.80;12.00
939;DHT22;456;53.584;9.968;2023-02-07T03:03:42;16.80;12.00
939;DHT22;456;53.584;9.968;2023-02-07T03:06:35;16.70;11.90
939;DHT22;456;53.584;9.968;2023-02-07T03:10:05;16.70;11.90
939;DHT22;456;53.584;9.968;2023-02-07T03:12:33;16.70;12.00
939;DHT22;456;53.584;9.968;2023-02-07T03:17:53;16.70;12.00
939;DHT22;456;53.584;9.968;2023-02-07T03:20:37;16.70;12.00
939;DHT22;456;53.584;9.968;2023-02-07T03:23:05;16.70;11.90
939;DHT22;456;53.584;9.968;2023-02-07T03:25:34;16.80;12.00
939;DHT22;456;53.584;9.968;2023-02-07T03:28:02;16.80;12.20
939;DHT22;456;53.584;9.968;2023-02-07T03:30:32;16.80;12.00
939;DHT22;456;53.584;9.968;2023-02-07T03:33:01;16.80;12.00
939;DHT22;456;53.584;9.968;2023-02-07T03:38:02;16.80;12.00
939;DHT22;456;53.584;9.968;2023-02-07T03:40:32;16.80;12.00
939;DHT22;456;53.584;9.968;2023-02-07T03:43:15;16.80;12.00
939;DHT22;456;53.584;9.968;2023-02-07T03:45:45;16.80;12.00
939;DHT22;456;53.584;9.968;2023-02-07T03:48:11;16.80;12.00
939;DHT22;456;53.584;9.968;2023-02-07T03:50:36;16.80;12.00
939;DHT22;456;53.584;9.968;2023-02-07T03:53:02;16.80;12.00
939;DHT22;456;53.584;9.968;2023-02-07T03:55:28;16.80;12.00
939;DHT22;456;53.584;9.968;2023-02-07T03:57:53;16.80;12.00
939;DHT22;456;53.584;9.968;2023-02-07T04:00:19;16.70;11.70
939;DHT22;456;53.584;9.968;2023-02-07T04:02:44;16.70;11.70
939;DHT22;456;53.584;9.968;2023-02-07T04:05:10;16.70;11.70
939;DHT22;456;53.584;9.968;2023-02-07T04:07:36;16.70;11.70
939;DHT22;456;53.584;9.968;2023-02-07T04:10:03;16.70;11.60
939;DHT22;456;53.584;9.968;2023-02-07T04:12:29;16.70;11.50
939;DHT22;456;53.584;9.968;2023-02-07T04:15:00;16.70;11.60
939;DHT22;456;53.584;9.968;2023-02-07T04:17:25;16.70;11.50
939;DHT22;456;53.584;9.968;2023-02-07T04:19:51;16.70;11.50
939;DHT22;456;53.584;9.968;2023-02-07T04:22:17;16.70;11.50
939;DHT22;456;53.584;9.968;2023-02-07T04:24:43;16.70;11.50
939;DHT22;456;53.584;9.968;2023-02-07T04:27:08;16.70;11.60
939;DHT22;456;53.584;9.968;2023-02-07T04:29:34;16.70;11.40
939;DHT22;456;53.584;9.968;2023-02-07T04:32:00;16.70;11.40
939;DHT22;456;53.584;9.968;2023-02-07T04:34:27;16.70;11.30
939;DHT22;456;53.584;9.968;2023-02-07T04:36:52;16.70;11.50
939;DHT22;456;53.584;9.968;2023-02-07T04:39:18;16.70;11.50
939;DHT22;456;53.584;9.968;2023-02-07T04:41:43;16.70;11.70
939;DHT22;456;53.584;9.968;2023-02-07T04:44:09;16.70;11.80
939;DHT22;456;53.584;9.968;2023-02-07T04:46:34;16.70;11.90
939;DHT22;456;53.584;9.968;2023-02-07T04:49:00;16.70;11.70
939;DHT22;456;53.584;9.968;2023-02-07T04:51:25;16.80;11.70
939;DHT22;456;53.584;9.968;2023-02-07T04:53:51;16.70;11.70
939;DHT22;456;53.584;9.968;2023-02-07T04:56:17;16.80;11.70
939;DHT22;456;53.584;9.968;2023-02-07T04:58:42;16.80;12.00
939;DHT22;456;53.584;9.968;2023-02-07T05:01:08;16.80;12.00
939;DHT22;456;53.584;9.968;2023-02-07T05:03:33;16.80;12.00
939;DHT22;456;53.584;9.968;2023-02-07T05:05:59;16.80;12.00
939;DHT22;456;53.584;9.968;2023-02-07T05:08:24;16.90;12.10
939;DHT22;456;53.584;9.968;2023-02-07T05:10:52;16.90;12.10
939;DHT22;456;53.584;9.968;2023-02-07T05:13:18;16.90;11.90
939;DHT22;456;53.584;9.968;2023-02-07T05:15:43;16.90;11.80
939;DHT22;456;53.584;9.968;2023-02-07T05:18:09;16.90;11.90
939;DHT22;456;53.584;9.968;2023-02-07T05:20:34;16.90;11.80
939;DHT22;456;53.584;9.968;2023-02-07T05:23:00;16.90;11.70
939;DHT22;456;53.584;9.968;2023-02-07T05:25:25;16.90;11.60
939;DHT22;456;53.584;9.968;2023-02-07T05:27:51;16.90;11.60
939;DHT22;456;53.584;9.968;2023-02-07T05:30:17;16.90;12.10
939;DHT22;456;53.584;9.968;2023-02-07T05:32:43;16.90;11.60
939;DHT22;456;53.584;9.968;2023-02-07T05:35:27;16.90;11.90
939;DHT22;456;53.584;9.968;2023-02-07T05:37:52;16.90;11.80
939;DHT22;456;53.584;9.968;2023-02-07T05:40:18;16.90;11.50
939;DHT22;456;53.584;9.968;2023-02-07T05:42:43;16.80;11.40
939;DHT22;456;53.584;9.968;2023-02-07T05:45:09;16.80;11.40
939;DHT22;456;53.584;9.968;2023-02-07T05:47:35;16.90;11.40
939;DHT22;456;53.584;9.968;2023-02-07T05:50:01;16.90;11.40
939;DHT22;456;53.584;9.968;2023-02-07T05:52:27;16.80;11.30
939;DHT22;456;53.584;9.968;2023-02-07T05:54:53;16.90;11.40
939;DHT22;456;53.584;9.968;2023-02-07T05:57:18;16.90;11.40
939;DHT22;456;53.584;9.968;2023-02-07T05:59:44;16.90;11.60
939;DHT22;456;53.584;9.968;2023-02-07T06:02:09;16.90;12.20
939;DHT22;456;53.584;9.968;2023-02-07T06:04:35;16.90;12.10
939;DHT22;456;53.584;9.968;2023-02-07T06:07:00;16.90;12.00
939;DHT22;456;53.584;9.968;2023-02-07T06:09:26;16.90;12.60
939;DHT22;456;53.584;9.968;2023-02-07T06:11:52;16.90;12.10
939;DHT22;456;53.584;9.968;2023-02-07T06:14:19;17.00;12.10
939;DHT22;456;53.584;9.968;2023-02-07T06:16:45;17.00;12.20
939;DHT22;456;53.584;9.968;2023-02-07T06:19:10;17.00;12.20
939;DHT22;456;53.584;9.968;2023-02-07T06:21:37;17.00;12.20
939;DHT22;456;53.584;9.968;2023-02-07T06:24:03;17.00;12.10
939;DHT22;456;53.584;9.968;2023-02-07T06:26:29;17.00;12.10
939;DHT22;456;53.584;9.968;2023-02-07T06:28:54;17.00;12.10
939;DHT22;456;53.584;9.968;2023-02-07T06:31:20;17.00;12.10
939;DHT22;456;53.584;9.968;2023-02-07T06:33:46;17.00;12.00
939;DHT22;456;53.584;9.968;2023-02-07T06:36:11;17.10;12.10
939;DHT22;456;53.584;9.968;2023-02-07T06:38:37;17.00;12.00
939;DHT22;456;53.584;9.968;2023-02-07T06:41:02;17.00;11.90
939;DHT22;456;53.584;9.968;2023-02-07T06:43:28;17.00;12.00
939;DHT22;456;53.584;9.968;2023-02-07T06:45:53;17.00;12.00
939;DHT22;456;53.584;9.968;2023-02-07T06:48:19;17.00;11.90
939;DHT22;456;53.584;9.968;2023-02-07T06:50:49;17.00;11.80
939;DHT22;456;53.584;9.968;2023-02-07T06:53:14;17.00;11.70
939;DHT22;456;53.584;9.968;2023-02-07T06:55:40;17.00;11.70
939;DHT22;456;53.584;9.968;2023-02-07T06:58:06;17.00;11.70
939;DHT22;456;53.584;9.968;2023-02-07T07:00:32;17.00;11.70
939;DHT22;456;53.584;9.968;2023-02-07T07:02:58;17.00;11.70
939;DHT22;456;53.584;9.968;2023-02-07T07:05:28;17.00;11.70
939;DHT22;456;53.584;9.968;2023-02-07T07:07:54;17.00;11.70
939;DHT22;456;53.584;9.968;2023-02-07T07:10:20;16.90;11.70
939;DHT22;456;53.584;9.968;2023-02-07T07:12:46;16.90;12.10
939;DHT22;456;53.584;9.968;2023-02-07T07:15:12;16.90;12.10
939;DHT22;456;53.584;9.968;2023-02-07T07:17:38;16.90;11.70
939;DHT22;456;53.584;9.968;2023-02-07T07:20:05;16.90;11.70
939;DHT22;456;53.584;9.968;2023-02-07T07:22:32;16.90;12.10
939;DHT22;456;53.584;9.968;2023-02-07T07:24:58;16.90;11.70
939;DHT22;456;53.584;9.968;2023-02-07T07:27:23;16.90;11.60
939;DHT22;456;53.584;9.968;2023-02-07T07:29:49;16.90;11.80
939;DHT22;456;53.584;9.968;2023-02-07T07:32:15;16.90;11.90
939;DHT22;456;53.584;9.968;2023-02-07T07:34:41;16.90;12.10
939;DHT22;456;53.584;9.968;2023-02-07T07:37:07;16.90;12.10
939;DHT22;456;53.584;9.968;2023-02-07T07:39:33;16.90;12.10
939;DHT22;456;53.584;9.968;2023-02-07T07:41:58;16.90;12.10
939;DHT22;456;53.584;9.968;2023-02-07T07:44:24;17.00;12.10
939;DHT22;456;53.584;9.968;2023-02-07T07:46:50;17.00;12.20
939;DHT22;456;53.584;9.968;2023-02-07T07:49:15;17.00;12.20
939;DHT22;456;53.584;9.968;2023-02-07T07:51:41;17.00;12.10
939;DHT22;456;53.584;9.968;2023-02-07T07:54:07;17.10;12.20
939;DHT22;456;53.584;9.968;2023-02-07T07:56:32;17.10;12.40
939;DHT22;456;53.584;9.968;2023-02-07T07:59:00;17.10;12.60
939;DHT22;456;53.584;9.968;2023-02-07T08:01:25;17.20;12.70
939;DHT22;456;53.584;9.968;2023-02-07T08:03:51;17.20;12.90
939;DHT22;456;53.584;9.968;2023-02-07T08:06:17;17.20;12.90
939;DHT22;456;53.584;9.968;2023-02-07T08:08:42;17.20;12.90
939;DHT22;456;53.584;9.968;2023-02-07T08:11:09;17.20;13.10
939;DHT22;456;53.584;9.968;2023-02-07T08:13:36;17.20;13.10
939;DHT22;456;53.584;9.968;2023-02-07T08:16:03;17.20;13.20
939;DHT22;456;53.584;9.968;2023-02-07T08:18:29;17.20;13.20
939;DHT22;456;53.584;9.968;2023-02-07T08:20:54;17.30;13.40
939;DHT22;456;53.584;9.968;2023-02-07T08:23:20;17.30;13.40
939;DHT22;456;53.584;9.968;2023-02-07T08:25:46;17.30;13.50
939;DHT22;456;53.584;9.968;2023-02-07T08:28:14;17.30;13.50
939;DHT22;456;53.584;9.968;2023-02-07T08:30:40;17.30;13.70
939;DHT22;456;53.584;9.968;2023-02-07T08:33:05;17.30;13.60
939;DHT22;456;53.584;9.968;2023-02-07T08:35:31;17.30;13.70
939;DHT22;456;53.584;9.968;2023-02-07T08:37:57;17.30;13.80
939;DHT22;456;53.584;9.968;2023-02-07T08:40:23;17.40;13.90
939;DHT22;456;53.584;9.968;2023-02-07T08:42:48;17.40;13.90
939;DHT22;456;53.584;9.968;2023-02-07T08:45:14;17.40;13.90
939;DHT22;456;53.584;9.968;2023-02-07T08:47:44;17.40;14.00
939;DHT22;456;53.584;9.968;2023-02-07T08:50:12;17.40;14.00
939;DHT22;456;53.584;9.968;2023-02-07T08:52:38;17.50;14.20
939;DHT22;456;53.584;9.968;2023-02-07T08:55:04;17.50;14.20
939;DHT22;456;53.584;9.968;2023-02-07T08:57:30;17.50;14.20
939;DHT22;456;53.584;9.968;2023-02-07T08:59:55;17.50;14.20
939;DHT22;456;53.584;9.968;2023-02-07T09:02:22;17.50;14.20
939;DHT22;456;53.584;9.968;2023-02-07T09:04:48;17.50;14.20
939;DHT22;456;53.584;9.968;2023-02-07T09:07:14;17.50;14.40
939;DHT22;456;53.584;9.968;2023-02-07T09:09:40;17.50;14.40
939;DHT22;456;53.584;9.968;2023-02-07T09:12:06;17.50;14.40
939;DHT22;456;53.584;9.968;2023-02-07T09:14:32;17.50;14.50
939;DHT22;456;53.584;9.968;2023-02-07T09:16:57;17.50;14.70
939;DHT22;456;53.584;9.968;2023-02-07T09:19:23;17.50;14.70
939;DHT22;456;53.584;9.968;2023-02-07T09:21:49;17.60;14.80
939;DHT22;456;53.584;9.968;2023-02-07T09:24:14;17.50;14.70
939;DHT22;456;53.584;9.968;2023-02-07T09:26:40;17.50;14.70
939;DHT22;456;53.584;9.968;2023-02-07T09:29:06;17.50;14.80
939;DHT22;456;53.584;9.968;2023-02-07T09:31:33;17.50;14.80
939;DHT22;456;53.584;9.968;2023-02-07T09:33:59;17.50;14.90
939;DHT22;456;53.584;9.968;2023-02-07T09:36:27;17.50;14.80
939;DHT22;456;53.584;9.968;2023-02-07T09:38:54;17.50;14.90
939;DHT22;456;53.584;9.968;2023-02-07T09:49:38;17.50;15.00
939;DHT22;456;53.584;9.968;2023-02-07T09:52:11;17.60;15.10
939;DHT22;456;53.584;9.968;2023-02-07T09:54:41;17.60;15.10
939;DHT22;456;53.584;9.968;2023-02-07T09:57:36;17.60;15.20
939;DHT22;456;53.584;9.968;2023-02-07T10:00:19;17.60;15.30
939;DHT22;456;53.584;9.968;2023-02-07T10:06:01;17.60;15.30
939;DHT22;456;53.584;9.968;2023-02-07T10:08:26;17.50;15.40
939;DHT22;456;53.584;9.968;2023-02-07T10:11:12;17.50;15.30
939;DHT22;456;53.584;9.968;2023-02-07T10:22:35;17.30;15.40
939;DHT22;456;53.584;9.968;2023-02-07T10:30:46;17.40;16.00
939;DHT22;456;53.584;9.968;2023-02-07T10:33:26;17.50;16.40
939;DHT22;456;53.584;9.968;2023-02-07T10:35:55;17.50;16.40
939;DHT22;456;53.584;9.968;2023-02-07T10:38:35;17.60;16.30
939;DHT22;456;53.584;9.968;2023-02-07T10:41:07;17.60;16.40
939;DHT22;456;53.584;9.968;2023-02-07T10:43:34;17.60;16.40
939;DHT22;456;53.584;9.968;2023-02-07T10:46:05;17.70;16.50
939;DHT22;456;53.584;9.968;2023-02-07T10:48:32;17.70;16.50
939;DHT22;456;53.584;9.968;2023-02-07T10:51:40;17.70;16.50
939;DHT22;456;53.584;9.968;2023-02-07T10:54:12;17.70;16.50
939;DHT22;456;53.584;9.968;2023-02-07T10:56:44;17.70;16.50
939;DHT22;456;53.584;9.968;2023-02-07T10:59:43;17.70;16.50
939;DHT22;456;53.584;9.968;2023-02-07T11:04:56;17.80;16.60
939;DHT22;456;53.584;9.968;2023-02-07T11:07:23;17.80;16.60
939;DHT22;456;53.584;9.968;2023-02-07T11:09:49;17.80;16.60
939;DHT22;456;53.584;9.968;2023-02-07T11:12:22;17.80;16.60
939;DHT22;456;53.584;9.968;2023-02-07T11:15:03;17.80;16.60
939;DHT22;456;53.584;9.968;2023-02-07T11:17:29;17.80;16.60
939;DHT22;456;53.584;9.968;2023-02-07T11:20:02;17.80;16.70
939;DHT22;456;53.584;9.968;2023-02-07T11:22:28;17.80;16.70
939;DHT22;456;53.584;9.968;2023-02-07T11:25:03;17.80;16.70
939;DHT22;456;53.584;9.968;2023-02-07T11:27:36;17.80;16.90
939;DHT22;456;53.584;9.968;2023-02-07T11:30:08;17.80;16.90
939;DHT22;456;53.584;9.968;2023-02-07T11:32:34;17.80;17.00
939;DHT22;456;53.584;9.968;2023-02-07T11:35:17;17.80;16.80
939;DHT22;456;53.584;9.968;2023-02-07T11:37:56;17.80;16.90
939;DHT22;456;53.584;9.968;2023-02-07T11:40:24;17.80;17.10
939;DHT22;456;53.584;9.968;2023-02-07T11:43:16;17.80;17.10
939;DHT22;456;53.584;9.968;2023-02-07T11:45:47;17.80;17.10
939;DHT22;456;53.584;9.968;2023-02-07T11:48:18;17.80;17.00
939;DHT22;456;53.584;9.968;2023-02-07T11:50:47;17.80;17.20
939;DHT22;456;53.584;9.968;2023-02-07T11:53:21;17.80;17.30
939;DHT22;456;53.584;9.968;2023-02-07T11:55:50;17.80;17.30
939;DHT22;456;53.584;9.968;2023-02-07T12:01:02;17.80;17.20
939;DHT22;456;53.584;9.968;2023-02-07T12:03:51;17.80;17.30
939;DHT22;456;53.584;9.968;2023-02-07T12:06:37;17.80;17.40
939;DHT22;456;53.584;9.968;2023-02-07T12:09:11;17.80;17.30
939;DHT22;456;53.584;9.968;2023-02-07T12:11:41;17.80;17.30
939;DHT22;456;53.584;9.968;2023-02-07T12:16:48;17.80;17.40
939;DHT22;456;53.584;9.968;2023-02-07T12:19:28;17.80;17.40
939;DHT22;456;53.584;9.968;2023-02-07T12:24:43;17.80;17.50
939;DHT22;456;53.584;9.968;2023-02-07T12:27:18;17.80;17.50
939;DHT22;456;53.584;9.968;2023-02-07T12:32:45;17.80;17.50
939;DHT22;456;53.584;9.968;2023-02-07T12:35:27;17.80;17.50
939;DHT22;456;53.584;9.968;2023-02-07T12:40:50;17.80;17.40
939;DHT22;456;53.584;9.968;2023-02-07T12:43:33;17.80;17.60
939;DHT22;456;53.584;9.968;2023-02-07T12:59:41;17.70;17.50
939;DHT22;456;53.584;9.968;2023-02-07T13:02:49;17.70;17.50
939;DHT22;456;53.584;9.968;2023-02-07T13:07:44;17.70;17.50
939;DHT22;456;53.584;9.968;2023-02-07T13:10:43;17.70;17.40
939;DHT22;456;53.584;9.968;2023-02-07T13:16:05;17.70;17.60
939;DHT22;456;53.584;9.968;2023-02-07T13:21:22;17.70;17.50
939;DHT22;456;53.584;9.968;2023-02-07T13:23:49;17.70;17.40
939;DHT22;456;53.584;9.968;2023-02-07T13:26:22;17.70;17.50
939;DHT22;456;53.584;9.968;2023-02-07T13:28:58;17.70;17.50
939;DHT22;456;53.584;9.968;2023-02-07T13:31:42;17.70;17.50
939;DHT22;456;53.584;9.968;2023-02-07T13:34:28;17.70;17.50
939;DHT22;456;53.584;9.968;2023-02-07T13:36:55;17.70;17.60
939;DHT22;456;53.584;9.968;2023-02-07T13:42:08;17.70;17.50
939;DHT22;456;53.584;9.968;2023-02-07T13:47:48;17.70;17.50
939;DHT22;456;53.584;9.968;2023-02-07T13:56:09;17.70;17.50
939;DHT22;456;53.584;9.968;2023-02-07T13:58:55;17.70;17.50
939;DHT22;456;53.584;9.968;2023-02-07T14:01:49;17.70;17.50
939;DHT22;456;53.584;9.968;2023-02-07T14:04:15;17.70;17.60
939;DHT22;456;53.584;9.968;2023-02-07T14:06:55;17.70;17.50
939;DHT22;456;53.584;9.968;2023-02-07T14:09:32;17.60;17.50
939;DHT22;456;53.584;9.968;2023-02-07T14:14:37;17.70;17.50
939;DHT22;456;53.584;9.968;2023-02-07T14:19:57;17.60;17.40
939;DHT22;456;53.584;9.968;2023-02-07T14:22:28;17.60;17.50
939;DHT22;456;53.584;9.968;2023-02-07T14:37:58;17.70;17.50
939;DHT22;456;53.584;9.968;2023-02-07T14:43:14;17.80;17.50
939;DHT22;456;53.584;9.968;2023-02-07T14:48:51;17.80;17.40
939;DHT22;456;53.584;9.968;2023-02-07T14:51:38;17.80;17.50
939;DHT22;456;53.584;9.968;2023-02-07T14:54:25;17.80;17.40
939;DHT22;456;53.584;9.968;2023-02-07T14:59:46;17.80;17.40
939;DHT22;456;53.584;9.968;2023-02-07T15:04:57;17.80;17.50
939;DHT22;456;53.584;9.968;2023-02-07T15:07:23;17.80;17.40
939;DHT22;456;53.584;9.968;2023-02-07T15:09:48;17.80;17.50
939;DHT22;456;53.584;9.968;2023-02-07T15:12:24;17.80;17.40
939;DHT22;456;53.584;9.968;2023-02-07T15:14:52;17.80;17.50
939;DHT22;456;53.584;9.968;2023-02-07T15:17:20;17.80;17.50
939;DHT22;456;53.584;9.968;2023-02-07T15:19:46;17.80;18.00
939;DHT22;456;53.584;9.968;2023-02-07T15:22:23;17.80;17.50
939;DHT22;456;53.584;9.968;2023-02-07T15:24:50;17.70;17.50
939;DHT22;456;53.584;9.968;2023-02-07T15:27:22;17.70;17.40
939;DHT22;456;53.584;9.968;2023-02-07T15:30:00;17.70;17.50
939;DHT22;456;53.584;9.968;2023-02-07T15:32:29;17.70;17.40
939;DHT22;456;53.584;9.968;2023-02-07T15:34:56;17.70;17.40
939;DHT22;456;53.584;9.968;2023-02-07T15:37:23;17.70;17.40
939;DHT22;456;53.584;9.968;2023-02-07T15:39:56;17.70;17.40
939;DHT22;456;53.584;9.968;2023-02-07T15:42:22;17.70;17.50
939;DHT22;456;53.584;9.968;2023-02-07T15:44:50;17.70;17.40
939;DHT22;456;53.584;9.968;2023-02-07T15:50:02;17.70;17.40
939;DHT22;456;53.584;9.968;2023-02-07T15:52:36;17.70;17.40
939;DHT22;456;53.584;9.968;2023-02-07T15:55:21;17.70;17.50
939;DHT22;456;53.584;9.968;2023-02-07T15:57:48;17.70;17.40
939;DHT22;456;53.584;9.968;2023-02-07T16:00:23;17.70;17.40
939;DHT22;456;53.584;9.968;2023-02-07T16:05:43;17.70;17.40
939;DHT22;456;53.584;9.968;2023-02-07T16:08:37;17.70;17.40
939;DHT22;456;53.584;9.968;2023-02-07T16:14:12;17.70;17.40
939;DHT22;456;53.584;9.968;2023-02-07T16:16:45;17.80;17.30
939;DHT22;456;53.584;9.968;2023-02-07T16:19:18;17.80;17.40
939;DHT22;456;53.584;9.968;2023-02-07T16:21:48;17.70;17.30
939;DHT22;456;53.584;9.968;2023-02-07T16:24:18;17.80;17.40
939;DHT22;456;53.584;9.968;2023-02-07T16:26:44;17.70;17.40
939;DHT22;456;53.584;9.968;2023-02-07T16:29:20;17.70;17.30
939;DHT22;456;53.584;9.968;2023-02-07T16:31:47;17.70;17.40
939;DHT22;456;53.584;9.968;2023-02-07T16:34:14;17.70;17.40
939;DHT22;456;53.584;9.968;2023-02-07T16:36:41;17.70;17.40
939;DHT22;456;53.584;9.968;2023-02-07T16:39:07;17.80;17.50
939;DHT22;456;53.584;9.968;2023-02-07T16:41:35;17.70;17.30
939;DHT22;456;53.584;9.968;2023-02-07T16:44:09;17.70;17.30
939;DHT22;456;53.584;9.968;2023-02-07T16:46:36;17.80;17.40
939;DHT22;456;53.584;9.968;2023-02-07T16:49:15;17.80;17.40
939;DHT22;456;53.584;9.968;2023-02-07T16:51:41;17.80;17.40
939;DHT22;456;53.584;9.968;2023-02-07T16:54:06;17.80;17.40
939;DHT22;456;53.584;9.968;2023-02-07T16:56:32;17.80;17.40
939;DHT22;456;53.584;9.968;2023-02-07T16:58:58;17.80;17.40
939;DHT22;456;53.584;9.968;2023-02-07T17:01:23;17.80;17.40
939;DHT22;456;53.584;9.968;2023-02-07T17:03:49;17.80;17.40
939;DHT22;456;53.584;9.968;2023-02-07T17:06:19;17.80;17.40
939;DHT22;456;53.584;9.968;2023-02-07T17:08:46;17.80;17.40
939;DHT22;456;53.584;9.968;2023-02-07T17:11:17;17.80;17.40
939;DHT22;456;53.584;9.968;2023-02-07T17:13:56;17.80;17.40
939;DHT22;456;53.584;9.968;2023-02-07T17:16:24;17.70;17.30
939;DHT22;456;53.584;9.968;2023-02-07T17:18:50;17.70;17.30
939;DHT22;456;53.584;9.968;2023-02-07T17:21:15;17.70;17.30
939;DHT22;456;53.584;9.968;2023-02-07T17:23:42;17.70;17.30
939;DHT22;456;53.584;9.968;2023-02-07T17:26:21;17.70;17.30
939;DHT22;456;53.584;9.968;2023-02-07T17:28:49;17.70;17.30
939;DHT22;456;53.584;9.968;2023-02-07T17:31:15;17.80;17.30
939;DHT22;456;53.584;9.968;2023-02-07T17:33:41;17.80;17.30
939;DHT22;456;53.584;9.968;2023-02-07T17:36:12;17.80;17.30
939;DHT22;456;53.584;9.968;2023-02-07T17:38:38;17.80;17.30
939;DHT22;456;53.584;9.968;2023-02-07T17:41:04;17.80;17.30
939;DHT22;456;53.584;9.968;2023-02-07T17:43:30;17.80;17.30
939;DHT22;456;53.584;9.968;2023-02-07T17:45:57;17.80;17.30
939;DHT22;456;53.584;9.968;2023-02-07T17:48:22;17.80;17.30
939;DHT22;456;53.584;9.968;2023-02-07T17:50:48;17.80;17.30
939;DHT22;456;53.584;9.968;2023-02-07T17:53:14;17.80;17.30
939;DHT22;456;53.584;9.968;2023-02-07T17:55:41;17.80;17.30
939;DHT22;456;53.584;9.968;2023-02-07T17:58:06;17.80;17.30
939;DHT22;456;53.584;9.968;2023-02-07T18:00:37;17.80;17.50
939;DHT22;456;53.584;9.968;2023-02-07T18:03:06;17.80;17.30
939;DHT22;456;53.584;9.968;2023-02-07T18:05:31;17.80;17.40
939;DHT22;456;53.584;9.968;2023-02-07T18:07:57;17.80;17.40
939;DHT22;456;53.584;9.968;2023-02-07T18:10:30;17.80;17.90
939;DHT22;456;53.584;9.968;2023-02-07T18:12:56;17.80;17.40
939;DHT22;456;53.584;9.968;2023-02-07T18:15:22;17.80;17.40
939;DHT22;456;53.584;9.968;2023-02-07T18:17:48;17.80;17.40
939;DHT22;456;53.584;9.968;2023-02-07T18:20:29;17.80;17.30
939;DHT22;456;53.584;9.968;2023-02-07T18:22:56;17.80;17.30
939;DHT22;456;53.584;9.968;2023-02-07T18:25:23;17.80;17.30
939;DHT22;456;53.584;9.968;2023-02-07T18:27:49;17.70;17.20
939;DHT22;456;53.584;9.968;2023-02-07T18:30:17;17.70;17.20
939;DHT22;456;53.584;9.968;2023-02-07T18:32:43;17.70;17.20
939;DHT22;456;53.584;9.968;2023-02-07T18:35:09;17.70;17.20
939;DHT22;456;53.584;9.968;2023-02-07T18:37:35;17.70;17.30
939;DHT22;456;53.584;9.968;2023-02-07T18:40:01;17.70;17.30
939;DHT22;456;53.584;9.968;2023-02-07T18:42:28;17.70;17.20
939;DHT22;456;53.584;9.968;2023-02-07T18:44:55;17.70;17.20
939;DHT22;456;53.584;9.968;2023-02-07T18:47:20;17.70;17.20
939;DHT22;456;53.584;9.968;2023-02-07T18:49:46;17.70;17.20
939;DHT22;456;53.584;9.968;2023-02-07T18:52:12;17.70;17.20
939;DHT22;456;53.584;9.968;2023-02-07T18:54:38;17.70;17.20
939;DHT22;456;53.584;9.968;2023-02-07T18:57:04;17.70;17.30
939;DHT22;456;53.584;9.968;2023-02-07T18:59:30;17.70;17.30
939;DHT22;456;53.584;9.968;2023-02-07T19:01:56;17.70;17.30
939;DHT22;456;53.584;9.968;2023-02-07T19:04:22;17.70;17.20
939;DHT22;456;53.584;9.968;2023-02-07T19:06:48;17.70;17.30
939;DHT22;456;53.584;9.968;2023-02-07T19:09:15;17.80;17.30
939;DHT22;456;53.584;9.968;2023-02-07T19:11:42;17.80;17.30
939;DHT22;456;53.584;9.968;2023-02-07T19:14:20;17.80;17.30